This is the latest recevied weather packets stored in our database for station/object SQ8AQX-13. If no packets are shown the sender has not sent any weather packets the latest 10 day(s).
| Time | Temp. | Humidity | Pressure | Rain* | Wind** | Luminosity | Snow |
|---|---|---|---|---|---|---|---|
| 1777422138 | 1.11° C | 66% | 1026.7 hPa | - | - | - | - |
| 1777421538 | 1.11° C | 66% | 1026.6 hPa | - | - | - | - |
| 1777420938 | 1.67° C | 63% | 1026.6 hPa | - | - | - | - |
| 1777419137 | 1.67° C | 63% | 1026.6 hPa | - | - | - | - |
| 1777418537 | 2.22° C | 62% | 1026.5 hPa | - | - | - | - |
| 1777417937 | 2.22° C | 63% | 1026.6 hPa | - | - | - | - |
| 1777416137 | 2.78° C | 61% | 1026.5 hPa | - | - | - | - |
| 1777413736 | 3.33° C | 57% | 1026.4 hPa | - | - | - | - |
| 1777413136 | 3.89° C | 56% | 1026.4 hPa | - | - | - | - |
| 1777412536 | 4.44° C | 54% | 1026.4 hPa | - | - | - | - |
| 1777411936 | 4.44° C | 54% | 1026.4 hPa | - | - | - | - |
| 1777410135 | 4.44° C | 53% | 1026.4 hPa | - | - | - | - |
| 1777409535 | 5° C | 52% | 1026.4 hPa | - | - | - | - |
| 1777408935 | 5.56° C | 50% | 1026.3 hPa | - | - | - | - |
| 1777407135 | 6.67° C | 47% | 1026.2 hPa | - | - | - | - |
| 1777406535 | 6.67° C | 48% | 1026.1 hPa | - | - | - | - |
| 1777405935 | 6.67° C | 48% | 1026.1 hPa | - | - | - | - |
| 1777404134 | 7.78° C | 44% | 1026.1 hPa | - | - | - | - |
| 1777403534 | 8.33° C | 43% | 1026.1 hPa | - | - | - | - |
| 1777402934 | 8.33° C | 41% | 1026 hPa | - | - | - | - |
| 1777401134 | 8.89° C | 37% | 1025.8 hPa | - | - | - | - |
| 1777400534 | 9.44° C | 36% | 1025.9 hPa | - | - | - | - |
| 1777399934 | 8.89° C | 36% | 1025.7 hPa | - | - | - | - |
| 1777398134 | 10.56° C | 33% | 1025.4 hPa | - | - | - | - |
| 1777397534 | 10.56° C | 31% | 1025.3 hPa | - | - | - | - |
* Rain since midnight (hover to see other rain measurements)
** Current wind speed in m/s (hover to see current wind gust speed)